createdAt,value
2018-12-10T00:02:01.393Z,5.20
2018-12-10T00:04:30.578Z,5.23
2018-12-10T00:07:00.373Z,5.25
2018-12-10T00:09:27.381Z,5.23
2018-12-10T00:11:54.515Z,5.20
2018-12-10T00:14:21.911Z,5.17
2018-12-10T00:16:48.948Z,5.15
2018-12-10T00:19:15.966Z,5.17
2018-12-10T00:21:43.018Z,5.11
2018-12-10T00:24:10.083Z,5.09
2018-12-10T00:26:37.118Z,5.20
2018-12-10T00:29:04.169Z,5.13
2018-12-10T00:31:31.192Z,5.13
2018-12-10T00:33:58.298Z,5.10
2018-12-10T00:36:25.477Z,5.06
2018-12-10T00:38:52.985Z,5.11
2018-12-10T00:41:20.060Z,5.10
2018-12-10T00:43:47.080Z,5.07
2018-12-10T00:46:14.433Z,4.99
2018-12-10T00:48:41.444Z,5.03
2018-12-10T00:51:08.462Z,5.01
2018-12-10T00:53:35.481Z,5.00
2018-12-10T00:56:02.602Z,4.96
2018-12-10T00:58:29.617Z,4.93
2018-12-10T01:00:56.849Z,4.96
2018-12-10T01:03:23.878Z,4.95
2018-12-10T01:05:52.115Z,4.91
2018-12-10T01:08:19.394Z,4.88
2018-12-10T01:10:46.434Z,4.90
2018-12-10T01:13:13.443Z,4.87
2018-12-10T01:15:40.482Z,4.89
2018-12-10T01:18:07.513Z,4.89
2018-12-10T01:20:34.561Z,4.87
2018-12-10T01:23:01.626Z,4.78
2018-12-10T01:25:29.086Z,4.77
2018-12-10T01:27:56.217Z,4.73
2018-12-10T01:30:23.745Z,4.77
2018-12-10T01:32:50.850Z,4.87
2018-12-10T01:35:17.878Z,4.81
2018-12-10T01:37:44.944Z,4.71
2018-12-10T01:40:11.958Z,4.70
2018-12-10T01:42:39.007Z,4.65
2018-12-10T01:45:07.462Z,4.61
2018-12-10T01:47:34.477Z,4.64
2018-12-10T01:50:01.643Z,4.63
2018-12-10T01:52:29.037Z,4.65
2018-12-10T01:54:56.494Z,4.65
2018-12-10T01:57:23.521Z,4.62
2018-12-10T01:59:58.081Z,4.66
2018-12-10T02:02:25.615Z,4.62
2018-12-10T02:04:52.659Z,4.59
2018-12-10T02:07:19.682Z,4.55
2018-12-10T02:09:46.727Z,4.66
2018-12-10T02:12:13.775Z,4.57
2018-12-10T02:14:40.805Z,4.62
2018-12-10T02:17:07.869Z,4.65
2018-12-10T02:19:34.899Z,4.71
2018-12-10T02:22:01.919Z,4.81
2018-12-10T02:24:28.968Z,4.93
2018-12-10T02:26:55.998Z,4.81
2018-12-10T02:29:23.019Z,4.74
2018-12-10T02:31:50.051Z,4.68
2018-12-10T02:34:18.251Z,4.72
2018-12-10T02:36:45.342Z,4.69
2018-12-10T02:39:12.367Z,4.68
2018-12-10T02:41:39.369Z,4.68
2018-12-10T02:44:06.398Z,4.65
2018-12-10T02:46:33.576Z,4.59
2018-12-10T02:49:00.722Z,4.67
2018-12-10T02:51:28.179Z,4.66
2018-12-10T02:53:55.202Z,4.65
2018-12-10T02:56:22.240Z,4.69
2018-12-10T02:58:49.392Z,4.72
2018-12-10T03:01:16.622Z,4.60
2018-12-10T03:03:43.673Z,4.71
2018-12-10T03:06:17.853Z,4.64
2018-12-10T03:08:45.039Z,4.65
2018-12-10T03:11:12.098Z,4.60
2018-12-10T03:13:39.269Z,4.58
2018-12-10T03:16:06.306Z,4.53
2018-12-10T03:18:33.417Z,4.50
2018-12-10T03:21:00.455Z,4.56
2018-12-10T03:23:27.539Z,4.58
2018-12-10T03:25:54.733Z,4.60
2018-12-10T03:28:21.895Z,4.64
2018-12-10T03:30:48.933Z,4.62
2018-12-10T03:33:16.063Z,4.67
2018-12-10T03:35:43.198Z,4.60
2018-12-10T03:38:10.349Z,4.63
2018-12-10T03:40:37.410Z,4.64
2018-12-10T03:43:05.285Z,4.58
2018-12-10T03:45:32.525Z,4.63
2018-12-10T03:47:59.545Z,4.64
2018-12-10T03:50:33.658Z,4.43
2018-12-10T03:53:00.688Z,4.53
2018-12-10T03:55:27.913Z,4.48
2018-12-10T03:57:55.346Z,4.54
2018-12-10T04:00:22.371Z,4.64
2018-12-10T04:02:49.396Z,4.52
2018-12-10T04:05:16.798Z,4.39
2018-12-10T04:07:43.933Z,4.39
2018-12-10T04:10:11.009Z,4.37
2018-12-10T04:12:38.273Z,4.29
2018-12-10T04:15:05.334Z,4.30
2018-12-10T04:17:32.507Z,4.37
2018-12-10T04:19:59.556Z,4.36
2018-12-10T04:22:26.756Z,4.10
2018-12-10T04:24:53.897Z,4.33
2018-12-10T04:27:21.353Z,4.35
2018-12-10T04:29:48.542Z,4.34
2018-12-10T04:32:15.548Z,4.31
2018-12-10T04:34:42.572Z,4.32
2018-12-10T04:37:09.734Z,4.39
2018-12-10T04:39:36.803Z,4.34
2018-12-10T04:42:03.851Z,4.31
2018-12-10T04:44:31.210Z,4.37
2018-12-10T04:46:58.340Z,4.38
2018-12-10T04:49:25.388Z,4.27
2018-12-10T04:51:52.616Z,4.19
2018-12-10T04:54:19.852Z,4.27
2018-12-10T04:56:46.902Z,4.20
2018-12-10T04:59:13.977Z,4.24
2018-12-10T05:01:42.326Z,4.27
2018-12-10T05:04:09.892Z,4.40
2018-12-10T05:06:38.612Z,4.31
2018-12-10T05:09:08.250Z,4.36
2018-12-10T05:11:37.957Z,4.36
2018-12-10T05:14:05.607Z,4.31
2018-12-10T05:16:32.665Z,4.31
2018-12-10T05:18:59.697Z,3.99
2018-12-10T05:21:26.732Z,3.66
2018-12-10T05:23:53.755Z,3.72
2018-12-10T05:26:20.784Z,3.59
2018-12-10T05:28:47.926Z,3.56
2018-12-10T05:31:15.221Z,3.51
2018-12-10T05:33:42.257Z,3.51
2018-12-10T05:36:09.285Z,3.46
2018-12-10T05:38:36.776Z,3.45
2018-12-10T05:41:03.781Z,3.50
2018-12-10T05:43:30.833Z,3.53
2018-12-10T05:45:57.986Z,3.56
2018-12-10T05:48:26.270Z,3.60
2018-12-10T05:50:53.298Z,3.64
2018-12-10T05:53:20.309Z,3.64
2018-12-10T05:55:47.334Z,3.73
2018-12-10T05:58:14.680Z,3.73
2018-12-10T06:00:41.721Z,3.77
2018-12-10T06:03:08.750Z,3.93
2018-12-10T06:05:36.194Z,3.95
2018-12-10T06:08:03.239Z,3.89
2018-12-10T06:10:30.329Z,3.91
2018-12-10T06:12:57.374Z,3.89
2018-12-10T06:15:24.396Z,3.89
2018-12-10T06:17:51.525Z,3.90
2018-12-10T06:20:18.555Z,3.90
2018-12-10T06:22:45.909Z,3.93
2018-12-10T06:25:12.944Z,4.15
2018-12-10T06:27:40.083Z,4.26
2018-12-10T06:30:07.455Z,4.32
2018-12-10T06:32:34.669Z,4.37
2018-12-10T06:35:01.815Z,4.34
2018-12-10T06:37:37.375Z,4.40
2018-12-10T06:39:58.357Z,4.35
2018-12-10T06:42:25.389Z,4.36
2018-12-10T06:44:52.679Z,4.42
2018-12-10T06:47:19.931Z,4.49
2018-12-10T06:49:46.944Z,4.47
2018-12-10T06:52:14.026Z,4.45
2018-12-10T06:54:41.196Z,4.39
2018-12-10T06:57:09.237Z,4.49
2018-12-10T06:59:36.259Z,4.51
2018-12-10T07:02:03.466Z,4.49
2018-12-10T07:04:30.492Z,4.50
2018-12-10T07:06:57.656Z,4.51
2018-12-10T07:09:24.697Z,4.49
2018-12-10T07:11:51.733Z,4.45
2018-12-10T07:14:18.749Z,4.46
2018-12-10T07:16:45.816Z,4.49
2018-12-10T07:19:12.863Z,4.46
2018-12-10T07:21:39.883Z,4.41
2018-12-10T07:24:06.934Z,4.45
2018-12-10T07:26:34.080Z,4.53
2018-12-10T07:29:01.137Z,4.62
2018-12-10T07:31:29.287Z,4.63
2018-12-10T07:33:56.319Z,4.61
2018-12-10T07:36:23.633Z,4.62
2018-12-10T07:38:50.993Z,4.59
2018-12-10T07:41:18.140Z,4.66
2018-12-10T07:43:45.190Z,4.60
2018-12-10T07:46:12.225Z,4.61
2018-12-10T07:48:39.395Z,4.55
2018-12-10T07:51:06.449Z,4.47
2018-12-10T07:53:33.607Z,4.45
2018-12-10T07:56:00.650Z,4.34
2018-12-10T07:58:27.958Z,4.28
2018-12-10T08:00:54.981Z,4.25
2018-12-10T08:03:21.994Z,4.22
2018-12-10T08:05:49.037Z,4.17
2018-12-10T08:08:16.053Z,4.23
2018-12-10T08:10:43.097Z,4.24
2018-12-10T08:13:10.150Z,4.28
2018-12-10T08:15:37.293Z,4.33
2018-12-10T08:18:05.180Z,4.38
2018-12-10T08:20:32.342Z,4.42
2018-12-10T08:22:59.367Z,4.53
2018-12-10T08:25:26.415Z,4.53
2018-12-10T08:27:53.675Z,4.60
2018-12-10T08:30:20.828Z,4.61
2018-12-10T08:32:47.871Z,4.61
2018-12-10T08:35:14.909Z,4.61
2018-12-10T08:37:42.093Z,4.63
2018-12-10T08:40:09.249Z,4.61
2018-12-10T08:42:36.274Z,4.62
2018-12-10T08:45:04.658Z,4.62
2018-12-10T08:47:31.699Z,4.64
2018-12-10T08:49:58.916Z,4.68
2018-12-10T08:52:25.937Z,4.74
2018-12-10T08:54:53.241Z,4.73
2018-12-10T08:57:20.298Z,4.88
2018-12-10T08:59:47.359Z,4.95
2018-12-10T09:02:14.413Z,5.00
2018-12-10T09:04:41.438Z,5.04
2018-12-10T09:07:08.495Z,5.18
2018-12-10T09:09:35.524Z,5.13
2018-12-10T09:12:02.662Z,5.17
2018-12-10T09:14:29.691Z,5.08
2018-12-10T09:16:56.742Z,5.05
2018-12-10T09:19:23.875Z,5.14
2018-12-10T09:21:50.891Z,5.13
2018-12-10T09:24:17.938Z,5.23
2018-12-10T09:26:44.972Z,5.16
2018-12-10T09:29:12.018Z,4.79
2018-12-10T09:31:39.065Z,4.90
2018-12-10T09:34:06.121Z,4.77
2018-12-10T09:36:33.446Z,4.85
2018-12-10T09:39:00.467Z,4.82
2018-12-10T09:41:27.489Z,4.91
2018-12-10T09:43:54.521Z,4.90
2018-12-10T09:46:27.442Z,4.85
2018-12-10T09:48:50.641Z,5.14
2018-12-10T09:51:17.653Z,5.20
2018-12-10T09:53:44.712Z,5.03
2018-12-10T09:56:11.737Z,5.05
2018-12-10T09:58:38.751Z,6.22
2018-12-10T10:01:06.163Z,6.25
2018-12-10T10:03:33.186Z,6.62
2018-12-10T10:06:00.198Z,6.80
2018-12-10T10:08:27.448Z,6.32
2018-12-10T10:10:54.474Z,7.00
2018-12-10T10:13:21.486Z,7.12
2018-12-10T10:15:48.757Z,6.97
2018-12-10T10:18:15.782Z,6.55
2018-12-10T10:20:42.902Z,6.62
2018-12-10T10:23:09.946Z,6.13
2018-12-10T10:25:36.959Z,5.71
2018-12-10T10:28:03.970Z,5.36
2018-12-10T10:30:31.058Z,5.06
2018-12-10T10:32:58.302Z,4.81
2018-12-10T10:35:26.009Z,4.69
2018-12-10T10:37:53.141Z,4.69
2018-12-10T10:40:20.312Z,4.68
2018-12-10T10:42:47.347Z,4.60
2018-12-10T10:45:14.437Z,4.55
2018-12-10T10:47:41.479Z,4.48
2018-12-10T10:50:08.617Z,4.39
2018-12-10T10:52:35.816Z,4.29
2018-12-10T10:55:03.759Z,4.25
2018-12-10T10:57:31.577Z,4.23
2018-12-10T10:59:58.946Z,4.27
2018-12-10T11:02:31.855Z,4.33
2018-12-10T11:04:58.886Z,4.34
2018-12-10T11:07:25.929Z,4.29
2018-12-10T11:09:58.079Z,4.37
2018-12-10T11:12:25.117Z,4.39
2018-12-10T11:14:52.157Z,4.42
2018-12-10T11:17:19.235Z,4.51
2018-12-10T11:19:46.278Z,4.62
2018-12-10T11:22:13.301Z,4.71
2018-12-10T11:24:40.323Z,4.71
2018-12-10T11:27:07.661Z,4.53
2018-12-10T11:29:34.787Z,4.39
2018-12-10T11:32:01.982Z,4.37
2018-12-10T11:34:29.141Z,4.32
2018-12-10T11:36:56.203Z,4.31
2018-12-10T11:39:23.317Z,4.20
2018-12-10T11:41:50.341Z,4.14
2018-12-10T11:44:17.474Z,4.12
2018-12-10T11:46:44.528Z,4.11
2018-12-10T11:49:11.658Z,4.07
2018-12-10T11:51:38.669Z,4.09
2018-12-10T11:54:05.712Z,4.18
2018-12-10T11:56:32.726Z,4.38
2018-12-10T11:58:59.757Z,4.54
2018-12-10T12:01:26.803Z,4.61
2018-12-10T12:03:53.936Z,4.60
2018-12-10T12:06:23.002Z,4.68
2018-12-10T12:08:53.113Z,4.77
2018-12-10T12:11:20.562Z,4.83
2018-12-10T12:13:47.697Z,4.88
2018-12-10T12:16:16.182Z,4.84
2018-12-10T12:18:43.201Z,5.02
2018-12-10T12:21:17.756Z,4.98
2018-12-10T12:23:44.798Z,5.40
2018-12-10T12:26:11.990Z,5.66
2018-12-10T12:28:39.200Z,5.97
2018-12-10T12:31:06.486Z,5.58
2018-12-10T12:33:34.047Z,5.28
2018-12-10T12:36:01.377Z,4.65
2018-12-10T12:38:28.510Z,4.50
2018-12-10T12:40:55.570Z,4.06
2018-12-10T12:43:22.771Z,3.44
2018-12-10T12:45:50.060Z,3.38
2018-12-10T12:48:17.182Z,3.56
2018-12-10T12:50:44.230Z,3.48
2018-12-10T12:53:11.431Z,3.53
2018-12-10T12:55:38.584Z,3.41
2018-12-10T12:58:06.642Z,3.50
2018-12-10T13:00:41.595Z,3.56
2018-12-10T13:03:03.076Z,3.58
2018-12-10T13:05:30.218Z,3.65
2018-12-10T13:07:57.245Z,3.64
2018-12-10T13:10:24.257Z,3.73
2018-12-10T13:12:51.586Z,3.72
2018-12-10T13:15:18.771Z,3.74
2018-12-10T13:17:45.785Z,3.80
2018-12-10T13:20:12.917Z,3.80
2018-12-10T13:22:47.060Z,3.94
2018-12-10T13:25:09.122Z,3.87
2018-12-10T13:27:37.282Z,3.91
2018-12-10T13:30:04.628Z,3.84
2018-12-10T13:32:31.770Z,3.91
2018-12-10T13:34:58.829Z,4.00
2018-12-10T13:37:25.894Z,4.11
2018-12-10T13:39:52.910Z,4.01
2018-12-10T13:42:19.915Z,4.13
2018-12-10T13:44:46.938Z,4.01
2018-12-10T13:47:13.966Z,3.97
2018-12-10T13:49:40.997Z,3.94
2018-12-10T13:52:09.261Z,4.00
2018-12-10T13:54:36.601Z,4.10
2018-12-10T13:57:03.686Z,4.15
2018-12-10T13:59:30.885Z,4.13
2018-12-10T14:01:57.886Z,4.22
2018-12-10T14:04:29.754Z,4.20
2018-12-10T14:06:56.812Z,4.25
2018-12-10T14:09:23.841Z,4.32
2018-12-10T14:11:51.377Z,4.35
2018-12-10T14:14:18.410Z,4.27
2018-12-10T14:16:46.639Z,4.26
2018-12-10T14:19:13.893Z,4.29
2018-12-10T14:21:40.906Z,4.25
2018-12-10T14:24:07.932Z,4.27
2018-12-10T14:26:35.008Z,4.26
2018-12-10T14:29:02.070Z,4.20
2018-12-10T14:31:29.101Z,4.12
2018-12-10T14:34:00.803Z,4.13
2018-12-10T14:36:28.135Z,4.08
2018-12-10T14:38:55.242Z,4.10
2018-12-10T14:41:22.318Z,4.12
2018-12-10T14:43:49.788Z,4.10
2018-12-10T14:46:16.810Z,4.17
2018-12-10T14:48:44.106Z,4.22
2018-12-10T14:51:11.334Z,4.15
2018-12-10T14:53:38.364Z,4.07
2018-12-10T14:56:05.408Z,4.04
2018-12-10T14:58:32.729Z,4.05
2018-12-10T15:00:59.924Z,4.04
2018-12-10T15:03:26.946Z,4.07
2018-12-10T15:05:53.990Z,4.12
2018-12-10T15:08:21.284Z,4.18
2018-12-10T15:10:48.481Z,4.22
2018-12-10T15:13:15.541Z,4.21
2018-12-10T15:15:42.845Z,4.19
2018-12-10T15:18:10.457Z,4.17
2018-12-10T15:20:37.493Z,4.13
2018-12-10T15:23:04.635Z,4.08
2018-12-10T15:25:31.759Z,4.05
2018-12-10T15:27:58.790Z,4.02
2018-12-10T15:30:25.794Z,4.06
2018-12-10T15:32:53.969Z,4.07
2018-12-10T15:35:21.122Z,4.02
2018-12-10T15:37:48.165Z,3.99
2018-12-10T15:40:23.070Z,3.90
2018-12-10T15:42:50.102Z,3.85
2018-12-10T15:45:17.130Z,3.81
2018-12-10T15:47:44.209Z,3.79
2018-12-10T15:50:11.851Z,3.80
2018-12-10T15:52:39.038Z,3.78
2018-12-10T15:55:06.214Z,3.76
2018-12-10T15:57:33.369Z,3.81
2018-12-10T16:00:00.552Z,3.78
2018-12-10T16:02:28.143Z,3.81
2018-12-10T16:04:55.179Z,4.51
2018-12-10T16:07:22.191Z,5.05
2018-12-10T16:09:50.339Z,4.72
2018-12-10T16:12:17.344Z,4.68
2018-12-10T16:14:44.409Z,4.61
2018-12-10T16:17:11.853Z,4.71
2018-12-10T16:19:38.885Z,4.55
2018-12-10T16:22:12.879Z,4.88
2018-12-10T16:24:39.913Z,4.89
2018-12-10T16:27:07.101Z,4.87
2018-12-10T16:29:34.218Z,4.67
2018-12-10T16:32:01.282Z,5.04
2018-12-10T16:34:30.399Z,4.84
2018-12-10T16:36:57.585Z,4.65
2018-12-10T16:39:24.648Z,4.87
2018-12-10T16:41:51.670Z,4.79
2018-12-10T16:44:18.729Z,4.68
2018-12-10T16:46:45.735Z,4.85
2018-12-10T16:49:12.772Z,4.82
2018-12-10T16:51:40.751Z,4.64
2018-12-10T16:54:07.753Z,4.62
2018-12-10T16:56:34.798Z,4.62
2018-12-10T16:59:08.885Z,4.77
2018-12-10T17:01:36.134Z,4.66
2018-12-10T17:04:03.389Z,5.21
2018-12-10T17:06:30.430Z,5.17
2018-12-10T17:08:57.770Z,4.88
2018-12-10T17:11:24.814Z,5.12
2018-12-10T17:13:52.483Z,5.34
2018-12-10T17:16:19.919Z,5.40
2018-12-10T17:18:47.146Z,5.32
2018-12-10T17:21:14.305Z,5.44
2018-12-10T17:23:41.697Z,5.45
2018-12-10T17:26:08.705Z,5.33
2018-12-10T17:28:35.729Z,5.19
2018-12-10T17:31:02.906Z,5.25
2018-12-10T17:33:30.080Z,5.52
2018-12-10T17:35:57.102Z,5.13
2018-12-10T17:38:24.365Z,5.03
2018-12-10T17:40:51.386Z,5.02
2018-12-10T17:43:18.517Z,4.98
2018-12-10T17:45:45.534Z,4.89
2018-12-10T17:48:12.643Z,4.90
2018-12-10T17:50:39.666Z,4.91
2018-12-10T17:53:06.814Z,4.90
2018-12-10T17:55:33.962Z,4.89
2018-12-10T17:58:01.009Z,4.94
2018-12-10T18:00:28.130Z,4.95
2018-12-10T18:02:55.347Z,4.87
2018-12-10T18:05:22.441Z,4.85
2018-12-10T18:07:49.502Z,4.87
2018-12-10T18:10:16.558Z,4.85
2018-12-10T18:12:44.711Z,4.86
2018-12-10T18:15:11.751Z,4.87
2018-12-10T18:17:38.870Z,4.94
2018-12-10T18:20:08.717Z,4.99
2018-12-10T18:22:36.153Z,5.03
2018-12-10T18:25:04.337Z,5.07
2018-12-10T18:27:31.443Z,5.11
2018-12-10T18:29:59.135Z,5.11
2018-12-10T18:32:26.237Z,5.18
2018-12-10T18:34:53.366Z,5.20
2018-12-10T18:37:20.418Z,5.20
2018-12-10T18:39:47.726Z,5.22
2018-12-10T18:42:15.359Z,5.28
2018-12-10T18:44:42.915Z,5.22
2018-12-10T18:47:09.946Z,5.24
2018-12-10T18:49:37.012Z,5.22
2018-12-10T18:52:05.233Z,5.25
2018-12-10T18:54:32.250Z,5.30
2018-12-10T18:56:59.429Z,5.37
2018-12-10T18:59:26.778Z,5.34
2018-12-10T19:01:53.796Z,5.24
2018-12-10T19:04:20.801Z,5.27
2018-12-10T19:06:48.214Z,5.24
2018-12-10T19:09:15.867Z,5.27
2018-12-10T19:11:43.070Z,5.24
2018-12-10T19:14:10.374Z,5.25
2018-12-10T19:16:37.563Z,5.26
2018-12-10T19:19:04.638Z,5.20
2018-12-10T19:21:31.846Z,5.18
2018-12-10T19:23:59.058Z,5.19
2018-12-10T19:26:26.901Z,5.13
2018-12-10T19:28:53.938Z,5.19
2018-12-10T19:31:21.051Z,5.16
2018-12-10T19:33:48.079Z,5.18
2018-12-10T19:36:15.694Z,5.10
2018-12-10T19:38:43.914Z,5.10
2018-12-10T19:41:10.931Z,5.08
2018-12-10T19:43:37.952Z,5.11
2018-12-10T19:46:05.604Z,5.07
2018-12-10T19:48:32.706Z,5.08
2018-12-10T19:50:59.745Z,5.09
2018-12-10T19:53:26.817Z,5.07
2018-12-10T19:55:53.969Z,5.08
2018-12-10T19:58:21.005Z,5.02
2018-12-10T20:00:48.186Z,5.03
2018-12-10T20:03:15.549Z,5.06
2018-12-10T20:05:48.429Z,5.04
2018-12-10T20:08:15.470Z,5.14
2018-12-10T20:10:42.675Z,5.04
2018-12-10T20:13:09.690Z,5.05
2018-12-10T20:15:36.713Z,4.99
2018-12-10T20:18:03.803Z,5.05
2018-12-10T20:20:30.837Z,5.03
2018-12-10T20:22:57.880Z,4.97
2018-12-10T20:25:25.207Z,5.00
2018-12-10T20:27:52.404Z,4.77
2018-12-10T20:30:19.530Z,5.10
2018-12-10T20:32:46.652Z,5.23
2018-12-10T20:35:13.892Z,5.06
2018-12-10T20:37:43.459Z,5.18
2018-12-10T20:40:10.485Z,4.96
2018-12-10T20:42:38.011Z,4.94
2018-12-10T20:45:06.780Z,4.87
2018-12-10T20:47:33.793Z,4.89
2018-12-10T20:50:00.842Z,4.85
2018-12-10T20:52:27.890Z,4.83
2018-12-10T20:55:02.316Z,4.83
2018-12-10T20:57:29.554Z,4.83
2018-12-10T20:59:56.602Z,4.87
2018-12-10T21:02:29.209Z,4.84
2018-12-10T21:04:53.069Z,4.84
2018-12-10T21:07:20.229Z,4.80
2018-12-10T21:09:47.252Z,4.84
2018-12-10T21:12:14.274Z,4.89
2018-12-10T21:14:41.617Z,4.84
2018-12-10T21:17:08.770Z,4.86
2018-12-10T21:19:35.820Z,4.84
2018-12-10T21:22:03.255Z,4.79
2018-12-10T21:24:30.316Z,4.85
2018-12-10T21:26:57.389Z,4.82
2018-12-10T21:29:24.507Z,4.90
2018-12-10T21:31:51.538Z,4.95
2018-12-10T21:34:18.563Z,4.91
2018-12-10T21:36:45.727Z,5.01
2018-12-10T21:39:12.793Z,5.10
2018-12-10T21:41:39.822Z,5.12
2018-12-10T21:44:06.969Z,5.05
2018-12-10T21:46:36.214Z,5.13
2018-12-10T21:49:03.395Z,5.10
2018-12-10T21:51:30.542Z,5.11
2018-12-10T21:53:57.555Z,5.11
2018-12-10T21:56:24.700Z,5.07
2018-12-10T21:58:51.717Z,5.13
2018-12-10T22:01:19.183Z,5.18
2018-12-10T22:03:46.339Z,5.17
2018-12-10T22:06:13.466Z,5.23
2018-12-10T22:08:40.734Z,5.18
2018-12-10T22:11:07.870Z,5.18
2018-12-10T22:13:34.910Z,5.23
2018-12-10T22:16:02.394Z,5.25
2018-12-10T22:18:29.461Z,5.25
2018-12-10T22:20:56.534Z,5.26
2018-12-10T22:23:23.594Z,5.28
2018-12-10T22:25:50.631Z,5.27
2018-12-10T22:28:19.239Z,5.27
2018-12-10T22:30:46.547Z,5.33
2018-12-10T22:33:13.581Z,5.32
2018-12-10T22:35:40.608Z,5.34
2018-12-10T22:38:07.655Z,5.46
2018-12-10T22:40:34.729Z,5.40
2018-12-10T22:43:01.760Z,5.38
2018-12-10T22:45:29.138Z,5.37
2018-12-10T22:47:56.298Z,5.24
2018-12-10T22:50:23.407Z,5.30
2018-12-10T22:52:50.415Z,5.34
2018-12-10T22:55:17.587Z,5.39
2018-12-10T22:57:44.628Z,5.40
2018-12-10T23:00:12.723Z,5.39
2018-12-10T23:02:41.827Z,5.35
2018-12-10T23:05:08.861Z,5.34
2018-12-10T23:07:37.923Z,5.32
2018-12-10T23:10:05.081Z,5.29
2018-12-10T23:12:32.138Z,5.43
2018-12-10T23:14:59.578Z,5.39
2018-12-10T23:17:26.693Z,5.35
2018-12-10T23:19:54.037Z,5.29
2018-12-10T23:22:21.106Z,5.33
2018-12-10T23:24:48.361Z,5.33
2018-12-10T23:27:15.753Z,5.28
2018-12-10T23:29:42.854Z,5.27
2018-12-10T23:32:10.019Z,5.31
2018-12-10T23:34:37.511Z,5.28
2018-12-10T23:37:04.886Z,5.31
2018-12-10T23:39:32.049Z,5.29
2018-12-10T23:41:59.375Z,5.31
2018-12-10T23:44:32.374Z,5.37
2018-12-10T23:47:16.559Z,5.35
2018-12-10T23:49:43.598Z,5.31
2018-12-10T23:52:11.660Z,5.37
2018-12-10T23:54:39.182Z,5.36
2018-12-10T23:57:06.500Z,5.23
2018-12-10T23:59:33.861Z,5.27
